sensor_id;sensor_type;location;lat;lon;timestamp;P1;durP1;ratioP1;P2;durP2;ratioP2
17773;SDS011;9011;33.236;-97.118;2022-10-19T00:01:02;1.40;;;0.60;;
17773;SDS011;9011;33.236;-97.118;2022-10-19T00:03:32;1.95;;;0.77;;
17773;SDS011;9011;33.236;-97.118;2022-10-19T00:06:08;1.90;;;0.85;;
17773;SDS011;9011;33.236;-97.118;2022-10-19T00:08:40;3.90;;;0.77;;
17773;SDS011;9011;33.236;-97.118;2022-10-19T00:11:09;2.90;;;0.70;;
17773;SDS011;9011;33.236;-97.118;2022-10-19T00:13:38;6.35;;;1.20;;
17773;SDS011;9011;33.236;-97.118;2022-10-19T00:16:07;3.08;;;0.90;;
17773;SDS011;9011;33.236;-97.118;2022-10-19T00:18:35;1.58;;;1.15;;
17773;SDS011;9011;33.236;-97.118;2022-10-19T00:21:04;4.30;;;1.00;;
17773;SDS011;9011;33.236;-97.118;2022-10-19T00:23:33;2.25;;;0.80;;
17773;SDS011;9011;33.236;-97.118;2022-10-19T00:26:03;1.58;;;0.70;;
17773;SDS011;9011;33.236;-97.118;2022-10-19T00:28:32;1.95;;;0.90;;
17773;SDS011;9011;33.236;-97.118;2022-10-19T00:31:02;1.42;;;0.75;;
17773;SDS011;9011;33.236;-97.118;2022-10-19T00:33:31;2.42;;;0.70;;
17773;SDS011;9011;33.236;-97.118;2022-10-19T00:35:59;3.03;;;0.50;;
17773;SDS011;9011;33.236;-97.118;2022-10-19T00:38:28;1.23;;;0.60;;
17773;SDS011;9011;33.236;-97.118;2022-10-19T00:40:56;1.80;;;0.60;;
17773;SDS011;9011;33.236;-97.118;2022-10-19T00:43:30;1.38;;;0.60;;
17773;SDS011;9011;33.236;-97.118;2022-10-19T00:45:58;1.00;;;0.60;;
17773;SDS011;9011;33.236;-97.118;2022-10-19T00:48:27;1.52;;;0.50;;
17773;SDS011;9011;33.236;-97.118;2022-10-19T00:50:58;1.63;;;0.63;;
17773;SDS011;9011;33.236;-97.118;2022-10-19T00:53:28;1.23;;;0.77;;
17773;SDS011;9011;33.236;-97.118;2022-10-19T00:55:58;1.17;;;0.70;;
17773;SDS011;9011;33.236;-97.118;2022-10-19T00:58:32;0.65;;;0.55;;
17773;SDS011;9011;33.236;-97.118;2022-10-19T01:01:01;0.90;;;0.50;;
17773;SDS011;9011;33.236;-97.118;2022-10-19T01:03:31;1.17;;;0.90;;
17773;SDS011;9011;33.236;-97.118;2022-10-19T01:06:00;4.40;;;1.00;;
17773;SDS011;9011;33.236;-97.118;2022-10-19T01:08:30;1.33;;;0.70;;
17773;SDS011;9011;33.236;-97.118;2022-10-19T01:11:03;1.70;;;0.80;;
17773;SDS011;9011;33.236;-97.118;2022-10-19T01:13:44;0.85;;;0.60;;
17773;SDS011;9011;33.236;-97.118;2022-10-19T01:16:23;5.57;;;0.70;;
17773;SDS011;9011;33.236;-97.118;2022-10-19T01:18:59;4.20;;;0.80;;
17773;SDS011;9011;33.236;-97.118;2022-10-19T01:21:38;4.55;;;0.77;;
17773;SDS011;9011;33.236;-97.118;2022-10-19T01:24:26;1.25;;;0.73;;
17773;SDS011;9011;33.236;-97.118;2022-10-19T01:30:23;1.40;;;0.65;;
17773;SDS011;9011;33.236;-97.118;2022-10-19T01:33:02;1.15;;;0.65;;
17773;SDS011;9011;33.236;-97.118;2022-10-19T01:35:43;1.73;;;0.70;;
17773;SDS011;9011;33.236;-97.118;2022-10-19T01:38:21;4.88;;;0.80;;
17773;SDS011;9011;33.236;-97.118;2022-10-19T01:40:57;1.75;;;0.60;;
17773;SDS011;9011;33.236;-97.118;2022-10-19T01:43:35;2.45;;;0.80;;
17773;SDS011;9011;33.236;-97.118;2022-10-19T01:46:10;1.55;;;0.90;;
17773;SDS011;9011;33.236;-97.118;2022-10-19T01:48:42;1.92;;;0.73;;
17773;SDS011;9011;33.236;-97.118;2022-10-19T01:51:18;2.97;;;0.90;;
17773;SDS011;9011;33.236;-97.118;2022-10-19T01:53:50;6.05;;;1.00;;
17773;SDS011;9011;33.236;-97.118;2022-10-19T01:56:21;1.73;;;0.73;;
17773;SDS011;9011;33.236;-97.118;2022-10-19T01:58:53;2.58;;;1.25;;
17773;SDS011;9011;33.236;-97.118;2022-10-19T02:01:25;4.65;;;1.17;;
17773;SDS011;9011;33.236;-97.118;2022-10-19T02:03:56;4.93;;;1.40;;
17773;SDS011;9011;33.236;-97.118;2022-10-19T02:06:26;3.10;;;1.20;;
17773;SDS011;9011;33.236;-97.118;2022-10-19T02:08:54;2.75;;;1.40;;
17773;SDS011;9011;33.236;-97.118;2022-10-19T02:11:23;2.55;;;1.52;;
17773;SDS011;9011;33.236;-97.118;2022-10-19T02:13:52;2.92;;;1.50;;
17773;SDS011;9011;33.236;-97.118;2022-10-19T02:16:26;4.10;;;1.35;;
17773;SDS011;9011;33.236;-97.118;2022-10-19T02:18:58;2.40;;;1.30;;
17773;SDS011;9011;33.236;-97.118;2022-10-19T02:21:28;2.15;;;1.02;;
17773;SDS011;9011;33.236;-97.118;2022-10-19T02:23:58;1.88;;;0.80;;
17773;SDS011;9011;33.236;-97.118;2022-10-19T02:26:26;3.25;;;1.30;;
17773;SDS011;9011;33.236;-97.118;2022-10-19T02:28:54;2.20;;;0.82;;
17773;SDS011;9011;33.236;-97.118;2022-10-19T02:31:23;2.38;;;1.17;;
17773;SDS011;9011;33.236;-97.118;2022-10-19T02:33:53;3.40;;;0.73;;
17773;SDS011;9011;33.236;-97.118;2022-10-19T02:36:22;2.85;;;1.02;;
17773;SDS011;9011;33.236;-97.118;2022-10-19T02:38:51;0.82;;;0.73;;
17773;SDS011;9011;33.236;-97.118;2022-10-19T02:41:20;7.22;;;0.90;;
17773;SDS011;9011;33.236;-97.118;2022-10-19T02:43:54;1.70;;;0.75;;
17773;SDS011;9011;33.236;-97.118;2022-10-19T02:46:29;3.00;;;0.75;;
17773;SDS011;9011;33.236;-97.118;2022-10-19T02:49:01;4.55;;;0.90;;
17773;SDS011;9011;33.236;-97.118;2022-10-19T02:51:32;4.68;;;1.00;;
17773;SDS011;9011;33.236;-97.118;2022-10-19T02:54:02;3.13;;;0.80;;
17773;SDS011;9011;33.236;-97.118;2022-10-19T02:56:31;1.63;;;0.70;;
17773;SDS011;9011;33.236;-97.118;2022-10-19T02:59:00;6.15;;;1.00;;
17773;SDS011;9011;33.236;-97.118;2022-10-19T03:01:30;3.20;;;1.10;;
17773;SDS011;9011;33.236;-97.118;2022-10-19T03:03:59;3.17;;;0.80;;
17773;SDS011;9011;33.236;-97.118;2022-10-19T03:06:27;2.63;;;0.98;;
17773;SDS011;9011;33.236;-97.118;2022-10-19T03:08:59;1.55;;;0.70;;
17773;SDS011;9011;33.236;-97.118;2022-10-19T03:11:27;4.93;;;1.60;;
17773;SDS011;9011;33.236;-97.118;2022-10-19T03:13:55;7.03;;;1.10;;
17773;SDS011;9011;33.236;-97.118;2022-10-19T03:16:24;1.27;;;0.87;;
17773;SDS011;9011;33.236;-97.118;2022-10-19T03:18:54;2.50;;;1.10;;
17773;SDS011;9011;33.236;-97.118;2022-10-19T03:21:22;0.95;;;0.70;;
17773;SDS011;9011;33.236;-97.118;2022-10-19T03:23:50;3.23;;;0.90;;
17773;SDS011;9011;33.236;-97.118;2022-10-19T03:26:21;3.13;;;1.03;;
17773;SDS011;9011;33.236;-97.118;2022-10-19T03:28:49;4.63;;;1.90;;
17773;SDS011;9011;33.236;-97.118;2022-10-19T03:31:18;6.97;;;3.50;;
17773;SDS011;9011;33.236;-97.118;2022-10-19T03:33:46;5.97;;;2.47;;
17773;SDS011;9011;33.236;-97.118;2022-10-19T03:36:18;9.53;;;3.80;;
17773;SDS011;9011;33.236;-97.118;2022-10-19T03:38:50;3.92;;;1.58;;
17773;SDS011;9011;33.236;-97.118;2022-10-19T03:41:20;2.47;;;1.20;;
17773;SDS011;9011;33.236;-97.118;2022-10-19T03:43:49;2.10;;;0.93;;
17773;SDS011;9011;33.236;-97.118;2022-10-19T03:46:17;1.70;;;1.00;;
17773;SDS011;9011;33.236;-97.118;2022-10-19T03:48:46;1.00;;;0.70;;
17773;SDS011;9011;33.236;-97.118;2022-10-19T03:51:18;1.03;;;0.80;;
17773;SDS011;9011;33.236;-97.118;2022-10-19T03:53:50;1.10;;;1.00;;
17773;SDS011;9011;33.236;-97.118;2022-10-19T03:56:20;2.60;;;1.13;;
17773;SDS011;9011;33.236;-97.118;2022-10-19T03:58:50;5.00;;;1.00;;
17773;SDS011;9011;33.236;-97.118;2022-10-19T04:01:21;1.23;;;0.70;;
17773;SDS011;9011;33.236;-97.118;2022-10-19T04:03:51;1.83;;;0.90;;
17773;SDS011;9011;33.236;-97.118;2022-10-19T04:06:23;1.90;;;0.80;;
17773;SDS011;9011;33.236;-97.118;2022-10-19T04:08:52;3.80;;;0.97;;
17773;SDS011;9011;33.236;-97.118;2022-10-19T04:11:21;2.47;;;1.00;;
17773;SDS011;9011;33.236;-97.118;2022-10-19T04:13:52;2.90;;;0.90;;
17773;SDS011;9011;33.236;-97.118;2022-10-19T04:16:21;3.33;;;0.90;;
17773;SDS011;9011;33.236;-97.118;2022-10-19T04:18:50;1.60;;;0.83;;
17773;SDS011;9011;33.236;-97.118;2022-10-19T04:21:19;5.83;;;1.00;;
17773;SDS011;9011;33.236;-97.118;2022-10-19T04:23:51;1.60;;;0.80;;
17773;SDS011;9011;33.236;-97.118;2022-10-19T04:26:23;4.43;;;1.00;;
17773;SDS011;9011;33.236;-97.118;2022-10-19T04:28:51;3.60;;;0.77;;
17773;SDS011;9011;33.236;-97.118;2022-10-19T04:31:19;1.83;;;0.70;;
17773;SDS011;9011;33.236;-97.118;2022-10-19T04:33:48;0.93;;;0.70;;
17773;SDS011;9011;33.236;-97.118;2022-10-19T04:36:16;2.60;;;0.63;;
17773;SDS011;9011;33.236;-97.118;2022-10-19T04:38:46;2.77;;;0.40;;
17773;SDS011;9011;33.236;-97.118;2022-10-19T04:41:15;3.97;;;0.80;;
17773;SDS011;9011;33.236;-97.118;2022-10-19T04:43:45;2.50;;;1.20;;
17773;SDS011;9011;33.236;-97.118;2022-10-19T04:46:15;1.10;;;0.70;;
17773;SDS011;9011;33.236;-97.118;2022-10-19T04:48:45;0.90;;;0.63;;
17773;SDS011;9011;33.236;-97.118;2022-10-19T04:51:15;3.23;;;0.97;;
17773;SDS011;9011;33.236;-97.118;2022-10-19T04:53:46;0.73;;;0.60;;
17773;SDS011;9011;33.236;-97.118;2022-10-19T04:56:15;1.80;;;0.90;;
17773;SDS011;9011;33.236;-97.118;2022-10-19T04:58:45;0.87;;;0.53;;
17773;SDS011;9011;33.236;-97.118;2022-10-19T05:01:15;2.10;;;0.80;;
17773;SDS011;9011;33.236;-97.118;2022-10-19T05:03:45;2.87;;;0.90;;
17773;SDS011;9011;33.236;-97.118;2022-10-19T05:06:14;4.70;;;1.10;;
17773;SDS011;9011;33.236;-97.118;2022-10-19T05:08:43;1.30;;;0.70;;
17773;SDS011;9011;33.236;-97.118;2022-10-19T05:11:13;1.27;;;0.90;;
17773;SDS011;9011;33.236;-97.118;2022-10-19T05:13:42;1.80;;;0.73;;
17773;SDS011;9011;33.236;-97.118;2022-10-19T05:16:12;2.10;;;0.80;;
17773;SDS011;9011;33.236;-97.118;2022-10-19T05:18:45;4.43;;;0.93;;
17773;SDS011;9011;33.236;-97.118;2022-10-19T05:21:15;1.87;;;0.90;;
17773;SDS011;9011;33.236;-97.118;2022-10-19T05:23:45;4.97;;;0.80;;
17773;SDS011;9011;33.236;-97.118;2022-10-19T05:26:15;3.07;;;0.77;;
17773;SDS011;9011;33.236;-97.118;2022-10-19T05:28:46;1.90;;;0.60;;
17773;SDS011;9011;33.236;-97.118;2022-10-19T05:31:15;1.50;;;0.47;;
17773;SDS011;9011;33.236;-97.118;2022-10-19T05:33:45;3.30;;;0.57;;
17773;SDS011;9011;33.236;-97.118;2022-10-19T05:36:14;0.93;;;0.60;;
17773;SDS011;9011;33.236;-97.118;2022-10-19T05:38:45;1.73;;;0.70;;
17773;SDS011;9011;33.236;-97.118;2022-10-19T05:41:15;2.40;;;0.70;;
17773;SDS011;9011;33.236;-97.118;2022-10-19T05:43:44;3.77;;;0.97;;
17773;SDS011;9011;33.236;-97.118;2022-10-19T05:46:14;1.00;;;0.70;;
17773;SDS011;9011;33.236;-97.118;2022-10-19T05:48:44;1.30;;;0.60;;
17773;SDS011;9011;33.236;-97.118;2022-10-19T05:51:13;1.00;;;0.60;;
17773;SDS011;9011;33.236;-97.118;2022-10-19T05:53:43;1.90;;;0.73;;
17773;SDS011;9011;33.236;-97.118;2022-10-19T05:56:12;3.73;;;0.70;;
17773;SDS011;9011;33.236;-97.118;2022-10-19T05:58:43;0.87;;;0.70;;
17773;SDS011;9011;33.236;-97.118;2022-10-19T06:01:12;1.60;;;1.00;;
17773;SDS011;9011;33.236;-97.118;2022-10-19T06:03:43;2.10;;;1.07;;
17773;SDS011;9011;33.236;-97.118;2022-10-19T06:06:12;2.40;;;0.80;;
17773;SDS011;9011;33.236;-97.118;2022-10-19T06:08:40;2.57;;;0.90;;
17773;SDS011;9011;33.236;-97.118;2022-10-19T06:11:09;3.37;;;0.90;;
17773;SDS011;9011;33.236;-97.118;2022-10-19T06:13:40;2.20;;;1.00;;
17773;SDS011;9011;33.236;-97.118;2022-10-19T06:16:10;3.47;;;1.20;;
17773;SDS011;9011;33.236;-97.118;2022-10-19T06:18:40;5.10;;;1.47;;
17773;SDS011;9011;33.236;-97.118;2022-10-19T06:21:10;4.93;;;1.80;;
17773;SDS011;9011;33.236;-97.118;2022-10-19T06:23:39;2.20;;;2.00;;
17773;SDS011;9011;33.236;-97.118;2022-10-19T06:26:08;3.07;;;2.77;;
17773;SDS011;9011;33.236;-97.118;2022-10-19T06:28:38;3.00;;;2.80;;
17773;SDS011;9011;33.236;-97.118;2022-10-19T06:31:09;3.40;;;3.10;;
17773;SDS011;9011;33.236;-97.118;2022-10-19T06:33:39;3.57;;;2.57;;
17773;SDS011;9011;33.236;-97.118;2022-10-19T06:36:09;4.00;;;3.10;;
17773;SDS011;9011;33.236;-97.118;2022-10-19T06:38:39;3.83;;;3.50;;
17773;SDS011;9011;33.236;-97.118;2022-10-19T06:41:07;2.93;;;2.30;;
17773;SDS011;9011;33.236;-97.118;2022-10-19T06:43:36;3.93;;;3.57;;
17773;SDS011;9011;33.236;-97.118;2022-10-19T06:46:09;3.57;;;3.27;;
17773;SDS011;9011;33.236;-97.118;2022-10-19T06:48:39;4.67;;;3.27;;
17773;SDS011;9011;33.236;-97.118;2022-10-19T06:51:07;7.73;;;6.20;;
17773;SDS011;9011;33.236;-97.118;2022-10-19T06:53:38;7.40;;;5.60;;
17773;SDS011;9011;33.236;-97.118;2022-10-19T06:56:06;6.83;;;6.13;;
17773;SDS011;9011;33.236;-97.118;2022-10-19T06:58:36;7.37;;;6.73;;
17773;SDS011;9011;33.236;-97.118;2022-10-19T07:01:06;5.60;;;5.00;;
17773;SDS011;9011;33.236;-97.118;2022-10-19T07:03:37;2.80;;;2.10;;
17773;SDS011;9011;33.236;-97.118;2022-10-19T07:06:08;3.13;;;0.87;;
17773;SDS011;9011;33.236;-97.118;2022-10-19T07:08:38;1.23;;;0.80;;
17773;SDS011;9011;33.236;-97.118;2022-10-19T07:11:09;2.00;;;0.90;;
17773;SDS011;9011;33.236;-97.118;2022-10-19T07:13:39;1.50;;;0.70;;
17773;SDS011;9011;33.236;-97.118;2022-10-19T07:16:08;2.10;;;0.70;;
17773;SDS011;9011;33.236;-97.118;2022-10-19T07:18:39;2.47;;;0.60;;
17773;SDS011;9011;33.236;-97.118;2022-10-19T07:21:08;1.60;;;0.80;;
17773;SDS011;9011;33.236;-97.118;2022-10-19T07:23:39;3.43;;;0.90;;
17773;SDS011;9011;33.236;-97.118;2022-10-19T07:26:09;0.80;;;0.60;;
17773;SDS011;9011;33.236;-97.118;2022-10-19T07:28:40;0.60;;;0.60;;
17773;SDS011;9011;33.236;-97.118;2022-10-19T07:31:11;2.63;;;1.87;;
17773;SDS011;9011;33.236;-97.118;2022-10-19T07:33:43;3.60;;;1.10;;
17773;SDS011;9011;33.236;-97.118;2022-10-19T07:36:12;3.93;;;0.80;;
17773;SDS011;9011;33.236;-97.118;2022-10-19T07:38:40;2.77;;;0.80;;
17773;SDS011;9011;33.236;-97.118;2022-10-19T07:41:09;1.37;;;0.77;;
17773;SDS011;9011;33.236;-97.118;2022-10-19T07:43:39;2.40;;;0.70;;
17773;SDS011;9011;33.236;-97.118;2022-10-19T07:46:08;1.83;;;0.60;;
17773;SDS011;9011;33.236;-97.118;2022-10-19T07:48:38;0.43;;;0.40;;
17773;SDS011;9011;33.236;-97.118;2022-10-19T07:51:09;1.60;;;0.80;;
17773;SDS011;9011;33.236;-97.118;2022-10-19T07:53:39;0.80;;;0.60;;
17773;SDS011;9011;33.236;-97.118;2022-10-19T07:56:08;1.30;;;0.40;;
17773;SDS011;9011;33.236;-97.118;2022-10-19T07:58:38;1.90;;;0.60;;
17773;SDS011;9011;33.236;-97.118;2022-10-19T08:01:08;1.13;;;0.77;;
17773;SDS011;9011;33.236;-97.118;2022-10-19T08:03:37;0.77;;;0.57;;
17773;SDS011;9011;33.236;-97.118;2022-10-19T08:06:07;2.20;;;0.40;;
17773;SDS011;9011;33.236;-97.118;2022-10-19T08:08:38;3.17;;;0.53;;
17773;SDS011;9011;33.236;-97.118;2022-10-19T08:11:07;1.97;;;0.50;;
17773;SDS011;9011;33.236;-97.118;2022-10-19T08:13:36;0.77;;;0.60;;
17773;SDS011;9011;33.236;-97.118;2022-10-19T08:16:05;1.90;;;0.60;;
17773;SDS011;9011;33.236;-97.118;2022-10-19T08:18:46;0.60;;;0.40;;
17773;SDS011;9011;33.236;-97.118;2022-10-19T08:21:15;1.43;;;0.50;;
17773;SDS011;9011;33.236;-97.118;2022-10-19T08:23:44;0.80;;;0.53;;
17773;SDS011;9011;33.236;-97.118;2022-10-19T08:26:12;1.87;;;0.50;;
17773;SDS011;9011;33.236;-97.118;2022-10-19T08:28:41;0.80;;;0.40;;
17773;SDS011;9011;33.236;-97.118;2022-10-19T08:31:10;1.83;;;0.50;;
17773;SDS011;9011;33.236;-97.118;2022-10-19T08:33:39;1.53;;;0.30;;
17773;SDS011;9011;33.236;-97.118;2022-10-19T08:36:09;1.47;;;0.37;;
17773;SDS011;9011;33.236;-97.118;2022-10-19T08:38:40;0.70;;;0.50;;
17773;SDS011;9011;33.236;-97.118;2022-10-19T08:41:16;0.53;;;0.53;;
17773;SDS011;9011;33.236;-97.118;2022-10-19T08:44:12;0.50;;;0.50;;
17773;SDS011;9011;33.236;-97.118;2022-10-19T08:47:15;0.60;;;0.40;;
17773;SDS011;9011;33.236;-97.118;2022-10-19T08:49:54;4.70;;;0.80;;
17773;SDS011;9011;33.236;-97.118;2022-10-19T08:52:24;2.13;;;0.30;;
17773;SDS011;9011;33.236;-97.118;2022-10-19T08:54:57;0.70;;;0.50;;
17773;SDS011;9011;33.236;-97.118;2022-10-19T08:57:30;2.23;;;0.73;;
17773;SDS011;9011;33.236;-97.118;2022-10-19T09:00:06;0.83;;;0.50;;
17773;SDS011;9011;33.236;-97.118;2022-10-19T09:02:47;0.77;;;0.50;;
17773;SDS011;9011;33.236;-97.118;2022-10-19T09:05:26;1.00;;;0.50;;
17773;SDS011;9011;33.236;-97.118;2022-10-19T09:08:02;1.03;;;0.20;;
17773;SDS011;9011;33.236;-97.118;2022-10-19T09:10:32;1.30;;;0.60;;
17773;SDS011;9011;33.236;-97.118;2022-10-19T09:13:06;0.60;;;0.40;;
17773;SDS011;9011;33.236;-97.118;2022-10-19T09:15:41;1.03;;;0.60;;
17773;SDS011;9011;33.236;-97.118;2022-10-19T09:18:12;0.70;;;0.67;;
17773;SDS011;9011;33.236;-97.118;2022-10-19T09:20:47;2.83;;;0.50;;
17773;SDS011;9011;33.236;-97.118;2022-10-19T09:23:19;0.30;;;0.30;;
17773;SDS011;9011;33.236;-97.118;2022-10-19T09:25:53;0.60;;;0.47;;
17773;SDS011;9011;33.236;-97.118;2022-10-19T09:28:31;1.60;;;0.50;;
17773;SDS011;9011;33.236;-97.118;2022-10-19T09:31:09;3.40;;;0.90;;
17773;SDS011;9011;33.236;-97.118;2022-10-19T09:33:42;1.37;;;0.50;;
17773;SDS011;9011;33.236;-97.118;2022-10-19T09:36:16;1.03;;;0.57;;
17773;SDS011;9011;33.236;-97.118;2022-10-19T09:38:44;1.00;;;0.60;;
17773;SDS011;9011;33.236;-97.118;2022-10-19T09:41:16;3.17;;;0.70;;
17773;SDS011;9011;33.236;-97.118;2022-10-19T09:43:48;1.67;;;0.77;;
17773;SDS011;9011;33.236;-97.118;2022-10-19T09:46:25;0.83;;;0.80;;
17773;SDS011;9011;33.236;-97.118;2022-10-19T09:49:02;2.73;;;0.70;;
17773;SDS011;9011;33.236;-97.118;2022-10-19T09:51:38;2.00;;;0.60;;
17773;SDS011;9011;33.236;-97.118;2022-10-19T09:54:25;2.50;;;0.70;;
17773;SDS011;9011;33.236;-97.118;2022-10-19T09:57:00;1.40;;;0.40;;
17773;SDS011;9011;33.236;-97.118;2022-10-19T09:59:29;3.70;;;0.50;;
17773;SDS011;9011;33.236;-97.118;2022-10-19T10:02:14;4.37;;;0.50;;
17773;SDS011;9011;33.236;-97.118;2022-10-19T10:04:47;5.97;;;1.40;;
17773;SDS011;9011;33.236;-97.118;2022-10-19T10:07:24;3.90;;;0.73;;
17773;SDS011;9011;33.236;-97.118;2022-10-19T10:09:55;1.63;;;0.43;;
17773;SDS011;9011;33.236;-97.118;2022-10-19T10:12:26;2.80;;;0.60;;
17773;SDS011;9011;33.236;-97.118;2022-10-19T10:14:54;2.70;;;0.83;;
17773;SDS011;9011;33.236;-97.118;2022-10-19T10:17:26;1.13;;;0.60;;
17773;SDS011;9011;33.236;-97.118;2022-10-19T10:20:05;1.10;;;0.70;;
17773;SDS011;9011;33.236;-97.118;2022-10-19T10:22:52;2.93;;;0.40;;
17773;SDS011;9011;33.236;-97.118;2022-10-19T10:25:24;1.33;;;1.03;;
17773;SDS011;9011;33.236;-97.118;2022-10-19T10:27:57;1.13;;;0.70;;
17773;SDS011;9011;33.236;-97.118;2022-10-19T10:30:28;2.53;;;0.73;;
17773;SDS011;9011;33.236;-97.118;2022-10-19T10:33:00;1.00;;;0.40;;
17773;SDS011;9011;33.236;-97.118;2022-10-19T10:35:30;3.10;;;0.60;;
17773;SDS011;9011;33.236;-97.118;2022-10-19T10:40:48;1.30;;;0.40;;
17773;SDS011;9011;33.236;-97.118;2022-10-19T10:43:20;1.93;;;0.60;;
17773;SDS011;9011;33.236;-97.118;2022-10-19T10:45:53;3.47;;;1.27;;
17773;SDS011;9011;33.236;-97.118;2022-10-19T10:48:27;4.53;;;0.80;;
17773;SDS011;9011;33.236;-97.118;2022-10-19T10:50:57;4.70;;;0.93;;
17773;SDS011;9011;33.236;-97.118;2022-10-19T10:53:31;0.80;;;0.50;;
17773;SDS011;9011;33.236;-97.118;2022-10-19T10:56:03;1.87;;;0.50;;
17773;SDS011;9011;33.236;-97.118;2022-10-19T10:58:38;2.90;;;0.50;;
17773;SDS011;9011;33.236;-97.118;2022-10-19T11:01:14;3.63;;;1.10;;
17773;SDS011;9011;33.236;-97.118;2022-10-19T11:03:47;1.83;;;0.60;;
17773;SDS011;9011;33.236;-97.118;2022-10-19T11:06:22;3.80;;;0.60;;
17773;SDS011;9011;33.236;-97.118;2022-10-19T11:08:55;1.77;;;0.60;;
17773;SDS011;9011;33.236;-97.118;2022-10-19T11:11:30;1.47;;;0.40;;
17773;SDS011;9011;33.236;-97.118;2022-10-19T11:14:06;1.97;;;0.30;;
17773;SDS011;9011;33.236;-97.118;2022-10-19T11:16:52;2.07;;;0.73;;
17773;SDS011;9011;33.236;-97.118;2022-10-19T11:19:24;0.80;;;0.50;;
17773;SDS011;9011;33.236;-97.118;2022-10-19T11:21:56;2.23;;;0.60;;
17773;SDS011;9011;33.236;-97.118;2022-10-19T11:24:38;2.93;;;0.53;;
17773;SDS011;9011;33.236;-97.118;2022-10-19T11:27:16;0.73;;;0.50;;
17773;SDS011;9011;33.236;-97.118;2022-10-19T11:29:57;0.70;;;0.50;;
17773;SDS011;9011;33.236;-97.118;2022-10-19T11:32:38;2.83;;;0.67;;
17773;SDS011;9011;33.236;-97.118;2022-10-19T11:35:27;0.77;;;0.70;;
17773;SDS011;9011;33.236;-97.118;2022-10-19T11:38:18;1.43;;;0.50;;
17773;SDS011;9011;33.236;-97.118;2022-10-19T11:41:06;1.03;;;0.80;;
17773;SDS011;9011;33.236;-97.118;2022-10-19T11:43:43;0.70;;;0.47;;
17773;SDS011;9011;33.236;-97.118;2022-10-19T11:46:23;1.30;;;0.30;;
17773;SDS011;9011;33.236;-97.118;2022-10-19T11:49:06;3.90;;;0.80;;
17773;SDS011;9011;33.236;-97.118;2022-10-19T11:51:44;0.97;;;0.80;;
17773;SDS011;9011;33.236;-97.118;2022-10-19T11:54:28;2.00;;;0.67;;
17773;SDS011;9011;33.236;-97.118;2022-10-19T11:57:07;4.70;;;0.77;;
17773;SDS011;9011;33.236;-97.118;2022-10-19T11:59:45;4.83;;;1.17;;
17773;SDS011;9011;33.236;-97.118;2022-10-19T12:02:28;6.40;;;1.77;;
17773;SDS011;9011;33.236;-97.118;2022-10-19T12:05:13;13.23;;;2.00;;
17773;SDS011;9011;33.236;-97.118;2022-10-19T12:07:49;8.97;;;1.00;;
17773;SDS011;9011;33.236;-97.118;2022-10-19T12:10:27;2.73;;;0.87;;
17773;SDS011;9011;33.236;-97.118;2022-10-19T12:13:00;1.47;;;0.57;;
17773;SDS011;9011;33.236;-97.118;2022-10-19T12:15:31;1.13;;;0.53;;
17773;SDS011;9011;33.236;-97.118;2022-10-19T12:18:09;0.70;;;0.67;;
17773;SDS011;9011;33.236;-97.118;2022-10-19T12:20:42;4.07;;;1.23;;
17773;SDS011;9011;33.236;-97.118;2022-10-19T12:23:20;0.83;;;0.50;;
17773;SDS011;9011;33.236;-97.118;2022-10-19T12:25:53;2.13;;;0.90;;
17773;SDS011;9011;33.236;-97.118;2022-10-19T12:28:24;6.10;;;0.67;;
17773;SDS011;9011;33.236;-97.118;2022-10-19T12:30:55;1.73;;;0.77;;
17773;SDS011;9011;33.236;-97.118;2022-10-19T12:33:28;6.50;;;0.90;;
17773;SDS011;9011;33.236;-97.118;2022-10-19T12:36:08;1.40;;;0.93;;
17773;SDS011;9011;33.236;-97.118;2022-10-19T12:38:47;0.93;;;0.83;;
17773;SDS011;9011;33.236;-97.118;2022-10-19T12:41:24;3.90;;;1.60;;
17773;SDS011;9011;33.236;-97.118;2022-10-19T12:44:08;8.10;;;1.53;;
17773;SDS011;9011;33.236;-97.118;2022-10-19T12:46:48;2.40;;;1.80;;
17773;SDS011;9011;33.236;-97.118;2022-10-19T12:52:12;2.97;;;2.00;;
17773;SDS011;9011;33.236;-97.118;2022-10-19T12:54:42;7.43;;;2.67;;
17773;SDS011;9011;33.236;-97.118;2022-10-19T12:57:20;5.00;;;2.50;;
17773;SDS011;9011;33.236;-97.118;2022-10-19T12:59:56;4.53;;;2.03;;
17773;SDS011;9011;33.236;-97.118;2022-10-19T13:02:28;5.00;;;2.67;;
17773;SDS011;9011;33.236;-97.118;2022-10-19T13:05:00;3.50;;;1.60;;
17773;SDS011;9011;33.236;-97.118;2022-10-19T13:07:29;6.30;;;2.10;;
17773;SDS011;9011;33.236;-97.118;2022-10-19T13:10:02;3.40;;;1.80;;
17773;SDS011;9011;33.236;-97.118;2022-10-19T13:12:44;3.27;;;2.07;;
17773;SDS011;9011;33.236;-97.118;2022-10-19T13:21:46;3.83;;;2.03;;
17773;SDS011;9011;33.236;-97.118;2022-10-19T13:24:23;4.27;;;1.90;;
17773;SDS011;9011;33.236;-97.118;2022-10-19T13:30:00;3.10;;;1.20;;
17773;SDS011;9011;33.236;-97.118;2022-10-19T13:32:34;3.67;;;1.23;;
17773;SDS011;9011;33.236;-97.118;2022-10-19T13:35:20;5.17;;;1.80;;
17773;SDS011;9011;33.236;-97.118;2022-10-19T13:40:55;1.97;;;1.10;;
17773;SDS011;9011;33.236;-97.118;2022-10-19T13:43:29;1.90;;;1.47;;
17773;SDS011;9011;33.236;-97.118;2022-10-19T13:46:02;4.23;;;1.77;;
17773;SDS011;9011;33.236;-97.118;2022-10-19T13:51:40;4.90;;;1.20;;
17773;SDS011;9011;33.236;-97.118;2022-10-19T13:54:23;2.60;;;1.53;;
17773;SDS011;9011;33.236;-97.118;2022-10-19T13:57:02;3.80;;;0.93;;
17773;SDS011;9011;33.236;-97.118;2022-10-19T13:59:40;7.87;;;1.03;;
17773;SDS011;9011;33.236;-97.118;2022-10-19T14:05:53;1.23;;;0.60;;
17773;SDS011;9011;33.236;-97.118;2022-10-19T14:11:49;2.30;;;1.00;;
17773;SDS011;9011;33.236;-97.118;2022-10-19T14:14:19;2.80;;;1.00;;
17773;SDS011;9011;33.236;-97.118;2022-10-19T14:16:53;3.47;;;0.70;;
17773;SDS011;9011;33.236;-97.118;2022-10-19T14:19:24;3.30;;;0.70;;
17773;SDS011;9011;33.236;-97.118;2022-10-19T14:21:54;1.27;;;0.50;;
17773;SDS011;9011;33.236;-97.118;2022-10-19T14:24:26;5.00;;;0.93;;
17773;SDS011;9011;33.236;-97.118;2022-10-19T14:27:00;2.37;;;0.90;;
17773;SDS011;9011;33.236;-97.118;2022-10-19T14:29:30;3.87;;;1.10;;
17773;SDS011;9011;33.236;-97.118;2022-10-19T14:32:03;6.07;;;1.10;;
17773;SDS011;9011;33.236;-97.118;2022-10-19T14:34:31;2.17;;;0.83;;
17773;SDS011;9011;33.236;-97.118;2022-10-19T14:37:00;2.67;;;1.03;;
17773;SDS011;9011;33.236;-97.118;2022-10-19T14:39:29;5.17;;;1.30;;
17773;SDS011;9011;33.236;-97.118;2022-10-19T14:42:03;2.73;;;1.13;;
17773;SDS011;9011;33.236;-97.118;2022-10-19T14:44:36;1.63;;;1.10;;
17773;SDS011;9011;33.236;-97.118;2022-10-19T14:47:13;2.63;;;1.00;;
17773;SDS011;9011;33.236;-97.118;2022-10-19T14:49:44;1.63;;;0.73;;
17773;SDS011;9011;33.236;-97.118;2022-10-19T14:52:14;1.63;;;1.00;;
17773;SDS011;9011;33.236;-97.118;2022-10-19T14:54:46;2.60;;;1.03;;
17773;SDS011;9011;33.236;-97.118;2022-10-19T14:57:18;5.83;;;1.00;;
17773;SDS011;9011;33.236;-97.118;2022-10-19T14:59:53;2.50;;;0.97;;
17773;SDS011;9011;33.236;-97.118;2022-10-19T15:02:24;2.83;;;0.90;;
17773;SDS011;9011;33.236;-97.118;2022-10-19T15:04:55;1.10;;;1.00;;
17773;SDS011;9011;33.236;-97.118;2022-10-19T15:07:27;3.03;;;1.00;;
17773;SDS011;9011;33.236;-97.118;2022-10-19T15:10:03;2.17;;;0.90;;
17773;SDS011;9011;33.236;-97.118;2022-10-19T15:12:36;1.57;;;0.83;;
17773;SDS011;9011;33.236;-97.118;2022-10-19T15:15:07;2.43;;;0.87;;
17773;SDS011;9011;33.236;-97.118;2022-10-19T15:17:45;3.13;;;0.90;;
17773;SDS011;9011;33.236;-97.118;2022-10-19T15:20:24;3.47;;;0.77;;
17773;SDS011;9011;33.236;-97.118;2022-10-19T15:22:54;2.83;;;0.90;;
17773;SDS011;9011;33.236;-97.118;2022-10-19T15:25:26;2.87;;;0.70;;
17773;SDS011;9011;33.236;-97.118;2022-10-19T15:28:16;2.20;;;0.87;;
17773;SDS011;9011;33.236;-97.118;2022-10-19T15:30:56;1.50;;;0.60;;
17773;SDS011;9011;33.236;-97.118;2022-10-19T15:33:24;4.87;;;0.70;;
17773;SDS011;9011;33.236;-97.118;2022-10-19T15:36:02;2.42;;;0.80;;